createdAt,value
2018-12-15T00:00:52.012Z,94.79
2018-12-15T00:01:52.037Z,95.26
2018-12-15T00:02:52.078Z,94.51
2018-12-15T00:03:52.109Z,94.60
2018-12-15T00:04:52.143Z,94.42
2018-12-15T00:05:52.233Z,94.42
2018-12-15T00:06:52.210Z,94.60
2018-12-15T00:07:52.247Z,95.07
2018-12-15T00:08:52.284Z,94.89
2018-12-15T00:09:52.316Z,95.36
2018-12-15T00:10:52.352Z,94.42
2018-12-15T00:11:52.394Z,93.84
2018-12-15T00:12:52.424Z,93.94
2018-12-15T00:13:52.464Z,93.99
2018-12-15T00:14:52.491Z,94.08
2018-12-15T00:15:52.525Z,93.99
2018-12-15T00:16:52.562Z,93.80
2018-12-15T00:17:52.602Z,93.89
2018-12-15T00:18:52.630Z,94.32
2018-12-15T00:19:52.664Z,94.74
2018-12-15T00:20:52.703Z,94.46
2018-12-15T00:21:52.737Z,94.65
2018-12-15T00:22:52.775Z,94.37
2018-12-15T00:23:52.804Z,94.56
2018-12-15T00:24:52.838Z,94.56
2018-12-15T00:25:52.877Z,94.74
2018-12-15T00:26:52.910Z,94.74
2018-12-15T00:27:52.944Z,95.03
2018-12-15T00:28:52.977Z,94.79
2018-12-15T00:29:53.014Z,94.56
2018-12-15T00:30:53.058Z,94.37
2018-12-15T00:31:53.083Z,94.74
2018-12-15T00:32:53.121Z,94.65
2018-12-15T00:33:53.154Z,94.51
2018-12-15T00:34:53.193Z,94.79
2018-12-15T00:35:53.222Z,94.56
2018-12-15T00:36:53.266Z,94.65
2018-12-15T00:37:53.299Z,94.56
2018-12-15T00:38:53.326Z,94.37
2018-12-15T00:39:53.370Z,94.46
2018-12-15T00:40:53.393Z,94.93
2018-12-15T00:41:53.437Z,94.65
2018-12-15T00:42:53.466Z,94.84
2018-12-15T00:43:53.509Z,94.37
2018-12-15T00:44:53.534Z,94.46
2018-12-15T00:45:53.571Z,94.84
2018-12-15T00:46:53.604Z,94.84
2018-12-15T00:47:53.641Z,95.40
2018-12-15T00:48:53.680Z,94.74
2018-12-15T00:49:53.717Z,94.65
2018-12-15T00:50:53.745Z,94.74
2018-12-15T00:51:53.811Z,94.18
2018-12-15T00:52:53.816Z,94.56
2018-12-15T00:53:53.849Z,94.37
2018-12-15T00:54:53.887Z,94.56
2018-12-15T00:55:53.922Z,94.65
2018-12-15T00:56:53.966Z,94.65
2018-12-15T00:57:54.001Z,94.56
2018-12-15T00:58:54.027Z,94.37
2018-12-15T00:59:54.062Z,94.27
2018-12-15T01:00:54.091Z,94.74
2018-12-15T01:01:54.228Z,94.27
2018-12-15T01:02:54.169Z,94.74
2018-12-15T01:03:54.195Z,94.65
2018-12-15T01:04:54.313Z,95.31
2018-12-15T01:05:54.267Z,95.21
2018-12-15T01:06:54.310Z,95.12
2018-12-15T01:07:54.339Z,94.74
2018-12-15T01:08:54.374Z,94.74
2018-12-15T01:09:54.407Z,94.65
2018-12-15T01:10:54.439Z,95.59
2018-12-15T01:11:54.480Z,95.50
2018-12-15T01:12:54.513Z,94.46
2018-12-15T01:13:54.549Z,94.56
2018-12-15T01:14:54.584Z,94.74
2018-12-15T01:15:54.614Z,94.56
2018-12-15T01:16:54.648Z,95.12
2018-12-15T01:17:54.684Z,95.03
2018-12-15T01:18:54.715Z,95.12
2018-12-15T01:19:54.766Z,94.74
2018-12-15T01:20:54.791Z,94.27
2018-12-15T01:21:54.822Z,94.18
2018-12-15T01:22:54.860Z,94.37
2018-12-15T01:23:54.895Z,94.65
2018-12-15T01:24:54.938Z,93.70
2018-12-15T01:25:54.973Z,93.89
2018-12-15T01:26:55.002Z,93.89
2018-12-15T01:27:55.029Z,93.70
2018-12-15T01:28:55.065Z,94.18
2018-12-15T01:29:55.101Z,94.65
2018-12-15T01:30:55.142Z,94.46
2018-12-15T01:31:55.168Z,94.46
2018-12-15T01:32:55.203Z,94.56
2018-12-15T01:33:55.246Z,94.65
2018-12-15T01:34:55.273Z,94.56
2018-12-15T01:35:55.321Z,94.65
2018-12-15T01:36:55.341Z,94.84
2018-12-15T01:37:55.377Z,94.84
2018-12-15T01:38:55.414Z,94.37
2018-12-15T01:39:55.446Z,94.56
2018-12-15T01:40:55.479Z,94.46
2018-12-15T01:41:55.513Z,94.56
2018-12-15T01:42:55.632Z,94.56
2018-12-15T01:43:55.585Z,94.56
2018-12-15T01:44:55.617Z,94.74
2018-12-15T01:45:55.652Z,94.37
2018-12-15T01:46:55.688Z,94.46
2018-12-15T01:47:55.725Z,93.99
2018-12-15T01:48:55.757Z,94.65
2018-12-15T01:49:55.791Z,94.56
2018-12-15T01:50:55.826Z,94.37
2018-12-15T01:51:55.862Z,94.46
2018-12-15T01:52:55.897Z,94.46
2018-12-15T01:53:55.935Z,94.74
2018-12-15T01:54:55.966Z,94.65
2018-12-15T01:55:56.001Z,95.31
2018-12-15T01:56:56.036Z,95.31
2018-12-15T01:57:56.071Z,95.31
2018-12-15T01:58:56.106Z,95.40
2018-12-15T01:59:56.141Z,95.12
2018-12-15T02:00:56.173Z,95.31
2018-12-15T02:01:56.206Z,95.21
2018-12-15T02:02:56.249Z,95.12
2018-12-15T02:03:56.281Z,95.12
2018-12-15T02:04:56.317Z,95.12
2018-12-15T02:05:56.358Z,95.31
2018-12-15T02:06:56.405Z,95.12
2018-12-15T02:07:56.427Z,95.21
2018-12-15T02:08:56.456Z,95.12
2018-12-15T02:09:56.494Z,95.50
2018-12-15T02:10:56.525Z,94.74
2018-12-15T02:11:56.557Z,94.74
2018-12-15T02:12:56.597Z,94.65
2018-12-15T02:13:56.631Z,94.37
2018-12-15T02:14:56.660Z,94.46
2018-12-15T02:15:56.696Z,94.46
2018-12-15T02:16:56.729Z,94.27
2018-12-15T02:17:56.768Z,93.89
2018-12-15T02:18:56.799Z,93.89
2018-12-15T02:19:56.835Z,93.99
2018-12-15T02:20:56.869Z,93.89
2018-12-15T02:21:56.901Z,93.42
2018-12-15T02:22:56.943Z,93.61
2018-12-15T02:23:56.972Z,93.99
2018-12-15T02:24:57.005Z,94.08
2018-12-15T02:25:57.043Z,94.74
2018-12-15T02:26:57.074Z,94.37
2018-12-15T02:27:57.208Z,94.84
2018-12-15T02:28:57.145Z,94.84
2018-12-15T02:29:57.181Z,94.74
2018-12-15T02:30:57.219Z,94.46
2018-12-15T02:31:57.252Z,94.56
2018-12-15T02:32:57.286Z,94.65
2018-12-15T02:33:57.319Z,94.46
2018-12-15T02:34:57.356Z,94.37
2018-12-15T02:35:57.394Z,94.46
2018-12-15T02:36:57.426Z,94.65
2018-12-15T02:37:57.461Z,94.46
2018-12-15T02:38:57.493Z,94.18
2018-12-15T02:39:57.527Z,93.61
2018-12-15T02:40:57.576Z,93.42
2018-12-15T02:41:57.596Z,93.80
2018-12-15T02:42:57.636Z,93.80
2018-12-15T02:43:57.666Z,93.99
2018-12-15T02:44:57.710Z,93.70
2018-12-15T02:45:57.737Z,93.80
2018-12-15T02:46:57.781Z,93.61
2018-12-15T02:47:57.807Z,93.70
2018-12-15T02:48:57.839Z,94.08
2018-12-15T02:49:57.875Z,93.99
2018-12-15T02:50:57.911Z,94.65
2018-12-15T02:51:57.944Z,94.46
2018-12-15T02:52:57.979Z,94.65
2018-12-15T02:53:58.012Z,94.46
2018-12-15T02:54:58.242Z,94.65
2018-12-15T02:55:58.687Z,94.56
2018-12-15T02:56:58.145Z,94.46
2018-12-15T02:57:58.156Z,93.89
2018-12-15T02:58:58.193Z,94.74
2018-12-15T02:59:58.221Z,94.56
2018-12-15T03:00:58.266Z,94.27
2018-12-15T03:01:58.291Z,94.32
2018-12-15T03:02:58.334Z,94.27
2018-12-15T03:03:58.361Z,94.37
2018-12-15T03:04:58.410Z,94.46
2018-12-15T03:05:58.433Z,94.37
2018-12-15T03:06:58.470Z,94.18
2018-12-15T03:07:58.501Z,94.56
2018-12-15T03:08:58.535Z,95.12
2018-12-15T03:09:58.569Z,94.74
2018-12-15T03:10:58.606Z,94.74
2018-12-15T03:11:58.744Z,94.56
2018-12-15T03:12:58.686Z,94.65
2018-12-15T03:13:58.708Z,94.65
2018-12-15T03:14:58.744Z,94.56
2018-12-15T03:15:58.784Z,94.93
2018-12-15T03:16:58.824Z,94.56
2018-12-15T03:17:58.849Z,94.56
2018-12-15T03:18:58.884Z,94.74
2018-12-15T03:19:58.924Z,94.27
2018-12-15T03:20:58.952Z,94.65
2018-12-15T03:21:58.997Z,94.27
2018-12-15T03:22:59.021Z,93.80
2018-12-15T03:23:59.055Z,94.08
2018-12-15T03:24:59.095Z,93.04
2018-12-15T03:25:59.125Z,92.94
2018-12-15T03:26:59.166Z,93.13
2018-12-15T03:27:59.204Z,93.32
2018-12-15T03:28:59.230Z,93.70
2018-12-15T03:29:59.281Z,93.99
2018-12-15T03:30:59.308Z,93.89
2018-12-15T03:31:59.346Z,93.99
2018-12-15T03:32:59.369Z,93.32
2018-12-15T03:33:59.404Z,93.80
2018-12-15T03:34:59.451Z,93.80
2018-12-15T03:35:59.472Z,94.56
2018-12-15T03:36:59.511Z,93.89
2018-12-15T03:37:59.543Z,94.74
2018-12-15T03:38:59.587Z,94.56
2018-12-15T03:39:59.618Z,94.65
2018-12-15T03:40:59.650Z,94.56
2018-12-15T03:41:59.682Z,94.65
2018-12-15T03:42:59.730Z,94.37
2018-12-15T03:43:59.753Z,94.46
2018-12-15T03:44:59.786Z,93.89
2018-12-15T03:45:59.823Z,94.18
2018-12-15T03:46:59.856Z,93.80
2018-12-15T03:47:59.891Z,94.27
2018-12-15T03:48:59.931Z,94.08
2018-12-15T03:49:59.963Z,93.99
2018-12-15T03:50:59.998Z,93.89
2018-12-15T03:52:00.032Z,93.70
2018-12-15T03:53:00.066Z,94.08
2018-12-15T03:54:00.103Z,93.89
2018-12-15T03:55:00.140Z,93.70
2018-12-15T03:56:00.184Z,93.61
2018-12-15T03:57:00.203Z,93.80
2018-12-15T03:58:00.239Z,94.18
2018-12-15T03:59:00.275Z,93.70
2018-12-15T04:00:00.307Z,93.89
2018-12-15T04:01:00.341Z,93.99
2018-12-15T04:02:00.378Z,93.61
2018-12-15T04:03:00.413Z,93.61
2018-12-15T04:04:00.447Z,93.23
2018-12-15T04:05:00.489Z,93.42
2018-12-15T04:06:00.516Z,93.04
2018-12-15T04:07:00.553Z,93.13
2018-12-15T04:08:00.638Z,93.42
2018-12-15T04:09:00.620Z,93.04
2018-12-15T04:10:00.659Z,93.42
2018-12-15T04:11:00.692Z,93.13
2018-12-15T04:12:00.734Z,93.61
2018-12-15T04:13:00.760Z,93.70
2018-12-15T04:14:00.799Z,94.27
2018-12-15T04:15:00.832Z,94.18
2018-12-15T04:16:00.868Z,94.46
2018-12-15T04:17:00.903Z,94.56
2018-12-15T04:18:03.849Z,94.65
2018-12-15T04:19:00.984Z,94.56
2018-12-15T04:20:01.006Z,94.65
2018-12-15T04:21:01.037Z,94.18
2018-12-15T04:22:01.074Z,94.08
2018-12-15T04:23:01.109Z,93.70
2018-12-15T04:24:01.143Z,93.51
2018-12-15T04:25:01.179Z,93.04
2018-12-15T04:26:01.215Z,93.13
2018-12-15T04:27:01.254Z,92.85
2018-12-15T04:28:01.306Z,93.23
2018-12-15T04:29:01.316Z,93.42
2018-12-15T04:30:01.357Z,93.32
2018-12-15T04:31:01.387Z,93.23
2018-12-15T04:32:01.422Z,93.42
2018-12-15T04:33:01.455Z,93.42
2018-12-15T04:34:01.492Z,93.23
2018-12-15T04:35:01.530Z,93.42
2018-12-15T04:36:01.560Z,93.23
2018-12-15T04:37:01.601Z,93.23
2018-12-15T04:38:01.631Z,93.42
2018-12-15T04:39:01.731Z,93.42
2018-12-15T04:40:01.701Z,92.94
2018-12-15T04:41:01.743Z,93.61
2018-12-15T04:42:01.776Z,93.42
2018-12-15T04:43:01.803Z,93.23
2018-12-15T04:44:01.838Z,93.42
2018-12-15T04:45:01.881Z,93.70
2018-12-15T04:46:01.908Z,93.13
2018-12-15T04:47:01.942Z,93.04
2018-12-15T04:48:01.979Z,93.32
2018-12-15T04:49:02.172Z,93.13
2018-12-15T04:50:02.054Z,93.42
2018-12-15T04:51:02.089Z,93.42
2018-12-15T04:52:02.152Z,93.51
2018-12-15T04:53:02.155Z,93.51
2018-12-15T04:54:02.188Z,93.80
2018-12-15T04:55:02.253Z,93.32
2018-12-15T04:56:02.255Z,93.42
2018-12-15T04:57:02.291Z,92.94
2018-12-15T04:58:02.323Z,93.80
2018-12-15T04:59:02.359Z,93.51
2018-12-15T05:00:02.401Z,93.80
2018-12-15T05:01:02.430Z,94.08
2018-12-15T05:02:02.463Z,94.46
2018-12-15T05:03:02.507Z,94.74
2018-12-15T05:04:02.543Z,93.99
2018-12-15T05:05:02.606Z,93.32
2018-12-15T05:06:02.614Z,93.80
2018-12-15T05:07:02.637Z,93.13
2018-12-15T05:08:02.671Z,93.13
2018-12-15T05:09:02.709Z,93.23
2018-12-15T05:10:02.888Z,93.04
2018-12-15T05:11:02.775Z,93.23
2018-12-15T05:12:02.808Z,93.23
2018-12-15T05:13:02.846Z,93.42
2018-12-15T05:14:02.878Z,93.13
2018-12-15T05:15:02.914Z,93.51
2018-12-15T05:16:02.952Z,93.99
2018-12-15T05:17:02.983Z,93.42
2018-12-15T05:18:03.022Z,93.42
2018-12-15T05:19:03.069Z,93.13
2018-12-15T05:20:03.091Z,93.89
2018-12-15T05:21:03.124Z,93.99
2018-12-15T05:22:03.160Z,93.42
2018-12-15T05:23:03.192Z,93.51
2018-12-15T05:24:03.228Z,93.13
2018-12-15T05:25:03.262Z,93.42
2018-12-15T05:26:03.296Z,93.23
2018-12-15T05:27:03.332Z,92.94
2018-12-15T05:28:03.366Z,93.42
2018-12-15T05:29:03.400Z,93.32
2018-12-15T05:30:03.435Z,93.23
2018-12-15T05:31:03.471Z,93.13
2018-12-15T05:32:03.505Z,92.66
2018-12-15T05:33:03.538Z,92.66
2018-12-15T05:34:03.574Z,92.66
2018-12-15T05:35:03.609Z,93.04
2018-12-15T05:36:03.644Z,93.13
2018-12-15T05:37:03.678Z,93.51
2018-12-15T05:38:03.711Z,93.51
2018-12-15T05:39:03.747Z,93.04
2018-12-15T05:40:03.791Z,93.23
2018-12-15T05:41:03.818Z,93.04
2018-12-15T05:42:03.850Z,93.51
2018-12-15T05:43:03.886Z,93.13
2018-12-15T05:44:03.919Z,93.23
2018-12-15T05:45:03.954Z,93.51
2018-12-15T05:46:03.988Z,92.94
2018-12-15T05:47:04.029Z,93.13
2018-12-15T05:48:04.084Z,92.66
2018-12-15T05:49:04.099Z,92.47
2018-12-15T05:50:04.129Z,93.42
2018-12-15T05:51:04.162Z,93.13
2018-12-15T05:52:04.198Z,93.42
2018-12-15T05:53:04.232Z,93.23
2018-12-15T05:54:04.267Z,93.13
2018-12-15T05:55:04.305Z,93.23
2018-12-15T05:56:04.387Z,93.42
2018-12-15T05:57:04.369Z,93.42
2018-12-15T05:58:04.406Z,93.13
2018-12-15T05:59:04.439Z,93.13
2018-12-15T06:00:04.475Z,93.23
2018-12-15T06:01:04.513Z,93.13
2018-12-15T06:02:04.544Z,93.23
2018-12-15T06:03:04.581Z,93.13
2018-12-15T06:04:04.615Z,93.13
2018-12-15T06:05:04.650Z,93.32
2018-12-15T06:06:04.685Z,93.13
2018-12-15T06:07:04.717Z,93.51
2018-12-15T06:08:04.755Z,93.42
2018-12-15T06:09:04.786Z,93.32
2018-12-15T06:10:04.823Z,93.51
2018-12-15T06:11:04.857Z,93.32
2018-12-15T06:12:04.896Z,93.13
2018-12-15T06:13:04.925Z,93.32
2018-12-15T06:14:04.960Z,93.61
2018-12-15T06:15:04.996Z,93.89
2018-12-15T06:16:05.029Z,93.89
2018-12-15T06:17:05.070Z,94.08
2018-12-15T06:18:05.106Z,93.89
2018-12-15T06:19:05.134Z,93.99
2018-12-15T06:20:05.173Z,93.70
2018-12-15T06:21:05.205Z,93.99
2018-12-15T06:22:05.237Z,94.08
2018-12-15T06:23:05.271Z,93.99
2018-12-15T06:24:05.314Z,93.80
2018-12-15T06:25:05.342Z,93.80
2018-12-15T06:26:05.375Z,93.89
2018-12-15T06:27:05.410Z,93.89
2018-12-15T06:28:05.445Z,93.42
2018-12-15T06:29:05.480Z,93.61
2018-12-15T06:30:05.515Z,93.80
2018-12-15T06:31:05.550Z,93.32
2018-12-15T06:32:05.592Z,94.18
2018-12-15T06:33:05.618Z,93.89
2018-12-15T06:34:05.656Z,93.61
2018-12-15T06:35:05.688Z,93.70
2018-12-15T06:36:05.722Z,93.70
2018-12-15T06:37:05.768Z,93.89
2018-12-15T06:38:05.798Z,93.61
2018-12-15T06:39:05.830Z,94.08
2018-12-15T06:40:05.865Z,93.99
2018-12-15T06:41:05.897Z,93.70
2018-12-15T06:42:05.931Z,93.89
2018-12-15T06:43:05.967Z,93.23
2018-12-15T06:44:06.009Z,93.23
2018-12-15T06:45:06.033Z,93.13
2018-12-15T06:46:06.072Z,93.32
2018-12-15T06:47:06.107Z,92.94
2018-12-15T06:48:06.139Z,92.76
2018-12-15T06:49:06.177Z,92.85
2018-12-15T06:50:06.206Z,92.47
2018-12-15T06:51:06.241Z,92.29
2018-12-15T06:52:06.276Z,93.13
2018-12-15T06:53:06.310Z,93.04
2018-12-15T06:54:06.345Z,93.42
2018-12-15T06:55:06.384Z,93.32
2018-12-15T06:56:06.464Z,93.23
2018-12-15T06:57:07.903Z,93.23
2018-12-15T06:58:06.484Z,93.61
2018-12-15T06:59:06.519Z,93.23
2018-12-15T07:00:06.553Z,93.42
2018-12-15T07:01:06.588Z,93.13
2018-12-15T07:02:06.624Z,93.80
2018-12-15T07:03:06.756Z,93.23
2018-12-15T07:04:06.692Z,93.42
2018-12-15T07:05:06.724Z,93.51
2018-12-15T07:06:06.759Z,93.89
2018-12-15T07:07:06.798Z,93.89
2018-12-15T07:08:06.829Z,93.61
2018-12-15T07:09:06.867Z,93.04
2018-12-15T07:10:06.975Z,93.42
2018-12-15T07:11:06.937Z,93.61
2018-12-15T07:12:07.036Z,93.04
2018-12-15T07:13:07.003Z,93.23
2018-12-15T07:14:07.036Z,93.04
2018-12-15T07:15:07.077Z,93.04
2018-12-15T07:16:07.106Z,93.23
2018-12-15T07:17:07.143Z,93.70
2018-12-15T07:18:07.179Z,93.61
2018-12-15T07:19:07.209Z,93.70
2018-12-15T07:20:07.246Z,93.61
2018-12-15T07:21:07.280Z,93.61
2018-12-15T07:22:07.324Z,93.42
2018-12-15T07:23:07.350Z,93.23
2018-12-15T07:24:07.385Z,93.23
2018-12-15T07:25:07.418Z,93.70
2018-12-15T07:26:07.454Z,93.89
2018-12-15T07:27:07.488Z,93.70
2018-12-15T07:28:07.521Z,93.89
2018-12-15T07:29:07.558Z,93.23
2018-12-15T07:30:07.591Z,93.23
2018-12-15T07:31:07.627Z,93.51
2018-12-15T07:32:07.660Z,93.23
2018-12-15T07:33:07.694Z,93.32
2018-12-15T07:34:07.785Z,93.13
2018-12-15T07:35:07.765Z,93.42
2018-12-15T07:36:07.812Z,93.32
2018-12-15T07:37:07.846Z,93.23
2018-12-15T07:38:07.867Z,93.42
2018-12-15T07:39:07.959Z,93.13
2018-12-15T07:40:07.941Z,93.51
2018-12-15T07:41:07.973Z,93.51
2018-12-15T07:42:08.007Z,93.23
2018-12-15T07:43:08.067Z,93.32
2018-12-15T07:44:08.077Z,93.51
2018-12-15T07:45:08.144Z,93.42
2018-12-15T07:46:08.145Z,93.13
2018-12-15T07:47:08.181Z,93.23
2018-12-15T07:48:08.215Z,92.94
2018-12-15T07:49:08.251Z,93.51
2018-12-15T07:50:08.288Z,93.42
2018-12-15T07:51:08.319Z,93.23
2018-12-15T07:52:08.354Z,93.61
2018-12-15T07:53:08.389Z,93.42
2018-12-15T07:54:08.477Z,93.51
2018-12-15T07:55:08.458Z,93.13
2018-12-15T07:56:08.496Z,93.13
2018-12-15T07:57:08.527Z,93.42
2018-12-15T07:58:08.562Z,93.42
2018-12-15T07:59:08.598Z,93.32
2018-12-15T08:00:08.635Z,93.51
2018-12-15T08:01:08.666Z,93.42
2018-12-15T08:02:08.703Z,93.13
2018-12-15T08:03:08.768Z,93.13
2018-12-15T08:04:08.770Z,92.57
2018-12-15T08:05:08.804Z,92.76
2018-12-15T08:06:08.854Z,92.66
2018-12-15T08:07:08.875Z,93.23
2018-12-15T08:08:08.909Z,93.42
2018-12-15T08:09:08.944Z,93.89
2018-12-15T08:10:08.987Z,93.61
2018-12-15T08:11:09.022Z,92.94
2018-12-15T08:12:09.049Z,93.23
2018-12-15T08:13:09.095Z,93.80
2018-12-15T08:14:09.160Z,93.42
2018-12-15T08:15:09.613Z,93.51
2018-12-15T08:16:09.228Z,93.61
2018-12-15T08:17:09.226Z,93.42
2018-12-15T08:18:09.282Z,93.23
2018-12-15T08:19:09.293Z,93.42
2018-12-15T08:20:09.336Z,93.23
2018-12-15T08:21:09.360Z,92.94
2018-12-15T08:22:09.405Z,93.23
2018-12-15T08:23:09.431Z,93.32
2018-12-15T08:24:09.508Z,92.57
2018-12-15T08:25:09.499Z,92.66
2018-12-15T08:26:09.534Z,92.66
2018-12-15T08:27:09.570Z,92.29
2018-12-15T08:28:09.605Z,92.47
2018-12-15T08:29:09.642Z,92.76
2018-12-15T08:30:09.675Z,92.29
2018-12-15T08:31:09.720Z,92.38
2018-12-15T08:32:09.747Z,92.66
2018-12-15T08:33:09.827Z,92.66
2018-12-15T08:34:09.825Z,93.23
2018-12-15T08:35:09.849Z,92.94
2018-12-15T08:36:09.883Z,92.38
2018-12-15T08:37:09.922Z,92.57
2018-12-15T08:38:09.951Z,92.47
2018-12-15T08:39:09.988Z,92.76
2018-12-15T08:40:10.021Z,92.66
2018-12-15T08:41:10.056Z,92.66
2018-12-15T08:42:10.090Z,92.66
2018-12-15T08:43:10.228Z,92.47
2018-12-15T08:44:10.159Z,92.76
2018-12-15T08:45:10.194Z,91.91
2018-12-15T08:46:10.231Z,92.10
2018-12-15T08:47:10.275Z,92.00
2018-12-15T08:48:10.300Z,92.00
2018-12-15T08:49:10.350Z,92.00
2018-12-15T08:50:10.370Z,91.81
2018-12-15T08:51:10.503Z,92.57
2018-12-15T08:52:10.438Z,91.91
2018-12-15T08:53:10.483Z,92.29
2018-12-15T08:54:10.518Z,92.76
2018-12-15T08:55:10.544Z,92.00
2018-12-15T08:56:10.586Z,92.85
2018-12-15T08:57:10.622Z,92.47
2018-12-15T08:58:10.647Z,91.81
2018-12-15T08:59:10.696Z,91.81
2018-12-15T09:00:10.717Z,91.57
2018-12-15T09:01:10.752Z,91.19
2018-12-15T09:02:10.803Z,91.57
2018-12-15T09:03:10.823Z,91.15
2018-12-15T09:04:10.858Z,91.34
2018-12-15T09:05:10.893Z,90.58
2018-12-15T09:06:10.926Z,90.67
2018-12-15T09:07:10.961Z,90.86
2018-12-15T09:08:10.999Z,90.86
2018-12-15T09:09:11.030Z,90.86
2018-12-15T09:10:11.093Z,90.77
2018-12-15T09:11:11.099Z,91.15
2018-12-15T09:12:11.138Z,91.24
2018-12-15T09:13:11.248Z,91.34
2018-12-15T09:14:11.201Z,91.34
2018-12-15T09:15:11.239Z,91.34
2018-12-15T09:16:11.273Z,91.43
2018-12-15T09:17:11.334Z,91.34
2018-12-15T09:18:11.351Z,91.15
2018-12-15T09:19:11.644Z,91.05
2018-12-15T09:20:11.413Z,91.24
2018-12-15T09:21:11.456Z,91.15
2018-12-15T09:22:11.776Z,91.72
2018-12-15T09:23:11.602Z,91.62
2018-12-15T09:24:11.552Z,91.62
2018-12-15T09:25:11.601Z,91.15
2018-12-15T09:26:11.629Z,91.53
2018-12-15T09:27:12.096Z,91.43
2018-12-15T09:28:11.760Z,91.43
2018-12-15T09:29:11.724Z,91.15
2018-12-15T09:30:11.766Z,91.43
2018-12-15T09:31:11.804Z,91.05
2018-12-15T09:32:11.864Z,90.63
2018-12-15T09:33:11.863Z,90.72
2018-12-15T09:34:11.920Z,91.10
2018-12-15T09:36:11.983Z,91.29
2018-12-15T09:37:12.008Z,91.10
2018-12-15T09:38:12.037Z,91.48
2018-12-15T09:39:12.086Z,90.81
2018-12-15T09:40:12.218Z,90.48
2018-12-15T09:41:12.143Z,91.00
2018-12-15T09:42:12.195Z,90.72
2018-12-15T09:43:12.213Z,90.91
2018-12-15T09:44:12.253Z,90.91
2018-12-15T09:45:12.280Z,90.72
2018-12-15T09:46:12.318Z,90.53
2018-12-15T09:47:12.353Z,90.44
2018-12-15T09:48:12.395Z,90.15
2018-12-15T09:49:17.709Z,90.53
2018-12-15T09:50:12.453Z,90.63
2018-12-15T09:51:12.490Z,90.63
2018-12-15T09:52:12.525Z,90.34
2018-12-15T09:53:12.562Z,90.91
2018-12-15T09:54:12.592Z,90.63
2018-12-15T09:55:12.631Z,91.10
2018-12-15T09:56:12.670Z,91.00
2018-12-15T09:57:12.702Z,91.48
2018-12-15T09:58:12.734Z,91.57
2018-12-15T09:59:12.770Z,90.81
2018-12-15T10:00:12.822Z,91.00
2018-12-15T10:01:12.838Z,90.15
2018-12-15T10:02:12.873Z,90.25
2018-12-15T10:03:12.911Z,90.25
2018-12-15T10:04:12.945Z,90.44
2018-12-15T10:05:12.977Z,90.63
2018-12-15T10:06:13.012Z,90.06
2018-12-15T10:07:13.049Z,89.87
2018-12-15T10:08:13.083Z,89.68
2018-12-15T10:09:13.134Z,89.49
2018-12-15T10:10:13.156Z,89.68
2018-12-15T10:11:13.188Z,89.68
2018-12-15T10:12:13.224Z,88.92
2018-12-15T10:13:13.264Z,88.73
2018-12-15T10:14:13.292Z,88.73
2018-12-15T10:15:13.327Z,88.82
2018-12-15T10:16:13.362Z,89.01
2018-12-15T10:17:13.401Z,89.11
2018-12-15T10:18:13.432Z,89.58
2018-12-15T10:19:13.487Z,89.20
2018-12-15T10:20:13.503Z,89.11
2018-12-15T10:21:13.537Z,88.73
2018-12-15T10:22:13.571Z,88.73
2018-12-15T10:23:13.707Z,88.64
2018-12-15T10:24:13.643Z,88.73
2018-12-15T10:25:13.675Z,88.54
2018-12-15T10:26:13.749Z,89.11
2018-12-15T10:27:13.761Z,89.20
2018-12-15T10:28:13.782Z,89.01
2018-12-15T10:29:13.815Z,89.01
2018-12-15T10:30:13.867Z,88.64
2018-12-15T10:31:13.887Z,88.82
2018-12-15T10:32:13.928Z,88.92
2018-12-15T10:33:13.957Z,88.64
2018-12-15T10:34:13.998Z,88.82
2018-12-15T10:35:14.087Z,88.82
2018-12-15T10:36:14.062Z,88.92
2018-12-15T10:37:14.094Z,89.11
2018-12-15T10:38:14.131Z,88.82
2018-12-15T10:39:14.172Z,89.01
2018-12-15T10:40:14.201Z,89.49
2018-12-15T10:41:14.236Z,89.68
2018-12-15T10:42:14.273Z,89.49
2018-12-15T10:43:14.308Z,89.58
2018-12-15T10:44:14.344Z,89.58
2018-12-15T10:45:14.375Z,89.01
2018-12-15T10:46:14.423Z,88.64
2018-12-15T10:47:14.444Z,88.64
2018-12-15T10:48:14.480Z,88.64
2018-12-15T10:49:14.516Z,88.73
2018-12-15T10:50:14.554Z,88.26
2018-12-15T10:51:14.586Z,88.35
2018-12-15T10:52:14.621Z,87.88
2018-12-15T10:53:14.654Z,87.88
2018-12-15T10:54:14.691Z,87.88
2018-12-15T10:55:14.724Z,87.50
2018-12-15T10:56:14.768Z,87.59
2018-12-15T10:57:14.800Z,87.31
2018-12-15T10:58:14.829Z,87.40
2018-12-15T10:59:14.866Z,87.50
2018-12-15T11:00:15.010Z,87.50
2018-12-15T11:01:14.986Z,87.50
2018-12-15T11:02:14.982Z,87.31
2018-12-15T11:03:15.007Z,87.31
2018-12-15T11:04:15.173Z,87.88
2018-12-15T11:05:15.075Z,88.17
2018-12-15T11:06:15.109Z,88.17
2018-12-15T11:07:15.145Z,87.98
2018-12-15T11:08:15.181Z,88.07
2018-12-15T11:09:15.218Z,87.31
2018-12-15T11:10:15.254Z,87.31
2018-12-15T11:11:15.292Z,87.50
2018-12-15T11:12:15.320Z,87.50
2018-12-15T11:13:15.361Z,87.69
2018-12-15T11:14:15.389Z,87.50
2018-12-15T11:15:15.424Z,87.12
2018-12-15T11:16:15.462Z,87.40
2018-12-15T11:17:15.642Z,87.21
2018-12-15T11:18:15.530Z,87.31
2018-12-15T11:19:15.567Z,87.31
2018-12-15T11:20:15.614Z,87.50
2018-12-15T11:21:15.639Z,87.31
2018-12-15T11:22:15.678Z,87.50
2018-12-15T11:23:15.705Z,87.31
2018-12-15T11:24:15.744Z,88.07
2018-12-15T11:25:15.792Z,88.35
2018-12-15T11:26:15.827Z,87.98
2018-12-15T11:27:15.890Z,88.26
2018-12-15T11:28:15.894Z,88.35
2018-12-15T11:29:16.194Z,88.07
2018-12-15T11:30:16.139Z,87.98
2018-12-15T11:31:15.987Z,87.98
2018-12-15T11:32:16.027Z,88.64
2018-12-15T11:33:16.053Z,87.69
2018-12-15T11:34:16.087Z,88.07
2018-12-15T11:35:16.144Z,88.35
2018-12-15T11:36:16.158Z,88.26
2018-12-15T11:37:16.194Z,88.17
2018-12-15T11:38:16.229Z,88.07
2018-12-15T11:39:16.364Z,87.69
2018-12-15T11:40:16.299Z,88.07
2018-12-15T11:41:16.339Z,87.59
2018-12-15T11:42:16.369Z,87.40
2018-12-15T11:43:16.402Z,87.21
2018-12-15T11:44:16.438Z,86.83
2018-12-15T11:45:16.479Z,86.46
2018-12-15T11:46:16.515Z,87.02
2018-12-15T11:47:16.542Z,87.02
2018-12-15T11:48:16.579Z,87.02
2018-12-15T11:49:16.616Z,86.65
2018-12-15T11:50:16.672Z,86.46
2018-12-15T11:51:16.768Z,86.36
2018-12-15T11:52:16.727Z,85.99
2018-12-15T11:53:16.751Z,86.65
2018-12-15T11:54:16.791Z,86.36
2018-12-15T11:55:16.825Z,86.27
2018-12-15T11:56:16.860Z,86.93
2018-12-15T11:57:16.892Z,86.55
2018-12-15T11:58:16.937Z,86.46
2018-12-15T11:59:16.972Z,87.02
2018-12-15T12:00:17.007Z,86.93
2018-12-15T12:01:17.037Z,86.27
2018-12-15T12:02:17.069Z,85.99
2018-12-15T12:03:17.115Z,86.55
2018-12-15T12:06:17.217Z,85.70
2018-12-15T12:07:17.286Z,86.36
2018-12-15T12:08:17.278Z,86.83
2018-12-15T12:09:17.315Z,87.59
2018-12-15T12:10:17.347Z,86.74
2018-12-15T12:11:17.496Z,86.74
2018-12-15T12:12:17.475Z,87.21
2018-12-15T12:13:17.473Z,87.40
2018-12-15T12:14:17.504Z,87.21
2018-12-15T12:15:17.529Z,86.55
2018-12-15T12:16:17.558Z,87.21
2018-12-15T12:17:17.596Z,87.02
2018-12-15T12:18:17.628Z,86.74
2018-12-15T12:19:17.665Z,86.65
2018-12-15T12:20:17.816Z,86.83
2018-12-15T12:21:17.730Z,87.02
2018-12-15T12:22:17.777Z,86.83
2018-12-15T12:23:18.180Z,86.74
2018-12-15T12:24:17.839Z,86.93
2018-12-15T12:25:17.876Z,86.08
2018-12-15T12:26:17.906Z,86.46
2018-12-15T12:27:17.950Z,86.18
2018-12-15T12:28:17.979Z,85.80
2018-12-15T12:29:18.026Z,86.65
2018-12-15T12:30:18.052Z,86.74
2018-12-15T12:31:18.082Z,86.74
2018-12-15T12:32:18.118Z,86.74
2018-12-15T12:33:18.157Z,85.70
2018-12-15T12:34:18.292Z,86.18
2018-12-15T12:35:18.223Z,86.18
2018-12-15T12:36:18.260Z,85.70
2018-12-15T12:37:18.293Z,85.99
2018-12-15T12:38:18.728Z,85.80
2018-12-15T12:39:18.468Z,85.89
2018-12-15T12:40:18.405Z,86.08
2018-12-15T12:41:18.431Z,85.61
2018-12-15T12:42:18.473Z,85.89
2018-12-15T12:43:18.502Z,85.32
2018-12-15T12:44:18.690Z,85.17
2018-12-15T12:45:18.582Z,85.84
2018-12-15T12:46:18.627Z,85.65
2018-12-15T12:47:18.642Z,85.84
2018-12-15T12:48:18.684Z,84.61
2018-12-15T12:49:18.713Z,85.55
2018-12-15T12:50:18.762Z,84.75
2018-12-15T12:51:18.788Z,85.65
2018-12-15T12:52:18.817Z,85.27
2018-12-15T12:53:18.854Z,84.80
2018-12-15T12:54:18.898Z,84.66
2018-12-15T12:55:18.922Z,84.75
2018-12-15T12:56:18.959Z,84.70